Kamilche, Washington
Current Conditions -  °F | °C
As of 8:00 AM on Sunday 23 Nov 2014 (Local Time) from KSHN Reporting Station
Light Rain Light Rain  
Wind Chill: 43°   Ceiling: 5000
Heat Index: 49°   Visibility: 10mi
Dew Point: 45°   Wind: 17mph
Humidity: 86%   Direction: 230°SW
Pressure: 30.05"   Gusts: NA
Location:  47.1839°N, 123.15°W
Report Text: KSHN 231600Z AUTO 23015KT 10SM -RA FEW018 BKN050 OVC090 09/07 A3005 RMK AO2 LTG DSNT SW RAB1559 P0000 T00940072
Loading
Personal Weather Stations






























Interactive Weather Map New forecast layout! Learn more

10-Day Weather Forecast

Advertisements
Track Severe Weather on mobile